Accueil
METAR-TAF:

METAR-TAF

Aéroports :

Aéroport de Seletar

Singapour, Singapour

latitude: 01-25-08N, longitude: 103-51-57E, altitude: 11 m

Observation

Le bulletin a été fait il y a 52 minutes, à 03:00 UTC
Vent 8 kt de sud/sud-ouest
Température 25°C
Humidité 94%
Pression 1012 hPa
Visibilité: 8000 m
Quelques nuages à une hauteur de 1400 ft
Ciel couvert à une hauteur de 16000 ft
pluie,

METAR: WSSL 220300Z 21008KT 8000 RA FEW014 OVC160 25/24 Q1012

Heure: 11:52 (03:52 UTC)

Prévision

Le bulletin a été fait il y a 4 heures et 52 minutes, à 23:00 UTC
Prévision valable du 22 à 00 UTC au 23 à 06 UTC
Vent 12 kt de sud
Visibilité 10 km ou plus
Quelques nuages à une hauteur de 1500 ft
Nuages épars à une hauteur de 2000 ft

TAF: WSSL 212300Z 2200/2306 17012KT 9999 FEW015 SCT020

Observations et prévisions météorologiques de plus de 4000 aéroports (messages METAR et TAF).

Les stations disponibles sont représentées par des disques jaunes et rouges sur la carte.

Passer la souris dessus pour voir le nom de la station.

Cliquer dessus pour voir les observations et prévisions météorologiques.

Pour changer de carte: cliquez sur les boutons verts avec une croix noire pour zoomer, sur le bouton vert avec un tiret pour effectuer un zoom arrière, ou sur les flèches vertes pour les cartes adjacentes.


METAR-TAF: